createdAt,value
2018-04-24T00:01:25.752Z,1017.23
2018-04-24T00:02:53.029Z,1017.21
2018-04-24T00:04:20.338Z,1017.18
2018-04-24T00:05:47.539Z,1017.20
2018-04-24T00:07:14.899Z,1017.21
2018-04-24T00:08:42.220Z,1017.18
2018-04-24T00:10:09.663Z,1017.19
2018-04-24T00:11:37.027Z,1017.18
2018-04-24T00:13:04.521Z,1017.16
2018-04-24T00:14:31.930Z,1017.16
2018-04-24T00:15:59.337Z,1017.16
2018-04-24T00:17:26.738Z,1017.18
2018-04-24T00:18:54.248Z,1017.17
2018-04-24T00:20:21.482Z,1017.16
2018-04-24T00:21:48.767Z,1017.20
2018-04-24T00:23:16.164Z,1017.19
2018-04-24T00:24:43.349Z,1017.18
2018-04-24T00:26:10.671Z,1017.16
2018-04-24T00:27:37.989Z,1017.14
2018-04-24T00:29:05.229Z,1017.14
2018-04-24T00:30:32.516Z,1017.13
2018-04-24T00:31:59.906Z,1017.11
2018-04-24T00:33:27.403Z,1017.12
2018-04-24T00:34:54.742Z,1017.13
2018-04-24T00:36:22.240Z,1017.08
2018-04-24T00:37:49.534Z,1017.09
2018-04-24T00:39:16.662Z,1017.08
2018-04-24T00:40:43.818Z,1017.08
2018-04-24T00:42:11.235Z,1017.05
2018-04-24T00:43:38.582Z,1017.01
2018-04-24T00:45:06.050Z,1017.00
2018-04-24T00:46:33.279Z,1016.98
2018-04-24T00:48:00.527Z,1016.98
2018-04-24T00:49:27.906Z,1016.94
2018-04-24T00:50:55.064Z,1016.90
2018-04-24T00:52:22.411Z,1016.89
2018-04-24T00:53:49.662Z,1016.89
2018-04-24T00:55:16.973Z,1016.86
2018-04-24T00:56:43.973Z,1016.87
2018-04-24T00:58:11.502Z,1016.87
2018-04-24T00:59:38.671Z,1016.83
2018-04-24T01:01:05.880Z,1016.81
2018-04-24T01:02:33.290Z,1016.83
2018-04-24T01:04:00.394Z,1016.84
2018-04-24T01:05:27.656Z,1016.84
2018-04-24T01:06:54.886Z,1016.84
2018-04-24T01:08:22.257Z,1016.81
2018-04-24T01:09:49.605Z,1016.84
2018-04-24T01:11:16.749Z,1016.82
2018-04-24T01:12:44.030Z,1016.78
2018-04-24T01:14:11.219Z,1016.78
2018-04-24T01:15:38.636Z,1016.78
2018-04-24T01:17:05.495Z,1016.73
2018-04-24T01:18:32.836Z,1016.72
2018-04-24T01:20:00.078Z,1016.64
2018-04-24T01:21:27.536Z,1016.61
2018-04-24T01:22:54.759Z,1016.57
2018-04-24T01:24:22.098Z,1016.58
2018-04-24T01:25:49.392Z,1016.58
2018-04-24T01:27:16.652Z,1016.55
2018-04-24T01:28:43.779Z,1016.55
2018-04-24T01:30:10.900Z,1016.57
2018-04-24T01:31:38.125Z,1016.54
2018-04-24T01:33:05.376Z,1016.51
2018-04-24T01:34:32.745Z,1016.55
2018-04-24T01:36:00.068Z,1016.62
2018-04-24T01:37:27.168Z,1016.53
2018-04-24T01:38:54.363Z,1016.49
2018-04-24T01:40:21.852Z,1016.49
2018-04-24T01:41:49.124Z,1016.42
2018-04-24T01:43:16.234Z,1016.45
2018-04-24T01:44:43.456Z,1016.48
2018-04-24T01:46:10.841Z,1016.47
2018-04-24T01:47:38.192Z,1016.42
2018-04-24T01:49:05.187Z,1016.39
2018-04-24T01:50:32.472Z,1016.40
2018-04-24T01:51:59.896Z,1016.41
2018-04-24T01:53:27.176Z,1016.40
2018-04-24T01:54:54.639Z,1016.41
2018-04-24T01:56:21.675Z,1016.42
2018-04-24T01:57:48.761Z,1016.40
2018-04-24T01:59:16.105Z,1016.38
2018-04-24T02:00:43.350Z,1016.36
2018-04-24T02:02:10.602Z,1016.34
2018-04-24T02:03:37.824Z,1016.30
2018-04-24T02:05:04.979Z,1016.29
2018-04-24T02:06:32.412Z,1016.31
2018-04-24T02:07:59.760Z,1016.31
2018-04-24T02:09:27.027Z,1016.24
2018-04-24T02:10:54.481Z,1016.19
2018-04-24T02:12:21.775Z,1016.20
2018-04-24T02:13:49.097Z,1016.20
2018-04-24T02:15:16.524Z,1016.24
2018-04-24T02:16:43.682Z,1016.22
2018-04-24T02:18:10.939Z,1016.22
2018-04-24T02:19:38.260Z,1016.31
2018-04-24T02:21:05.570Z,1016.44
2018-04-24T02:22:32.881Z,1016.42
2018-04-24T02:23:59.879Z,1016.37
2018-04-24T02:25:26.934Z,1016.37
2018-04-24T02:26:54.140Z,1016.39
2018-04-24T02:28:21.584Z,1016.43
2018-04-24T02:29:49.057Z,1016.44
2018-04-24T02:31:16.187Z,1016.43
2018-04-24T02:32:43.314Z,1016.46
2018-04-24T02:34:10.729Z,1016.42
2018-04-24T02:35:37.941Z,1016.34
2018-04-24T02:37:05.374Z,1016.27
2018-04-24T02:38:32.466Z,1016.21
2018-04-24T02:40:00.051Z,1016.14
2018-04-24T02:41:27.340Z,1016.07
2018-04-24T02:42:54.711Z,1016.01
2018-04-24T02:44:21.948Z,1015.95
2018-04-24T02:45:49.004Z,1015.91
2018-04-24T02:47:16.379Z,1015.88
2018-04-24T02:48:43.611Z,1015.87
2018-04-24T02:50:13.725Z,1015.91
2018-04-24T02:51:38.132Z,1015.90
2018-04-24T02:53:05.470Z,1015.84
2018-04-24T02:54:32.864Z,1015.84
2018-04-24T02:56:00.161Z,1015.87
2018-04-24T02:57:27.554Z,1015.90
2018-04-24T02:58:54.641Z,1015.93
2018-04-24T03:00:22.038Z,1015.92
2018-04-24T03:01:49.487Z,1015.87
2018-04-24T03:03:16.526Z,1015.87
2018-04-24T03:04:43.757Z,1015.91
2018-04-24T03:06:10.966Z,1015.93
2018-04-24T03:07:38.272Z,1015.96
2018-04-24T03:09:05.594Z,1015.97
2018-04-24T03:10:33.026Z,1015.96
2018-04-24T03:12:00.269Z,1015.97
2018-04-24T03:13:27.711Z,1016.04
2018-04-24T03:14:55.053Z,1016.08
2018-04-24T03:16:22.346Z,1016.10
2018-04-24T03:17:49.527Z,1016.08
2018-04-24T03:19:16.811Z,1016.02
2018-04-24T03:20:44.211Z,1016.07
2018-04-24T03:22:11.536Z,1016.10
2018-04-24T03:23:38.832Z,1016.13
2018-04-24T03:25:06.241Z,1016.14
2018-04-24T03:26:33.752Z,1016.15
2018-04-24T03:28:00.792Z,1016.12
2018-04-24T03:29:28.075Z,1016.10
2018-04-24T03:30:55.554Z,1016.04
2018-04-24T03:32:22.869Z,1015.99
2018-04-24T03:33:50.181Z,1015.94
2018-04-24T03:35:17.192Z,1015.93
2018-04-24T03:36:44.421Z,1015.87
2018-04-24T03:38:11.665Z,1015.87
2018-04-24T03:39:39.074Z,1015.89
2018-04-24T03:41:06.059Z,1015.84
2018-04-24T03:42:33.600Z,1015.83
2018-04-24T03:44:00.896Z,1015.76
2018-04-24T03:45:28.425Z,1015.67
2018-04-24T03:46:55.806Z,1015.65
2018-04-24T03:48:23.180Z,1015.68
2018-04-24T03:49:50.544Z,1015.73
2018-04-24T03:51:17.566Z,1015.80
2018-04-24T03:52:44.602Z,1015.83
2018-04-24T03:54:11.776Z,1015.80
2018-04-24T03:55:39.008Z,1015.52
2018-04-24T03:57:06.474Z,1015.60
2018-04-24T03:58:33.347Z,1015.63
2018-04-24T04:00:00.521Z,1015.59
2018-04-24T04:01:27.977Z,1015.61
2018-04-24T04:02:55.019Z,1015.60
2018-04-24T04:04:22.241Z,1015.57
2018-04-24T04:05:49.525Z,1015.51
2018-04-24T04:07:16.854Z,1015.53
2018-04-24T04:08:43.996Z,1015.52
2018-04-24T04:10:11.309Z,1015.52
2018-04-24T04:11:38.760Z,1015.57
2018-04-24T04:13:06.348Z,1015.59
2018-04-24T04:14:33.632Z,1015.54
2018-04-24T04:16:09.054Z,1015.49
2018-04-24T04:17:28.141Z,1015.46
2018-04-24T04:18:55.530Z,1015.51
2018-04-24T04:20:22.695Z,1015.48
2018-04-24T04:21:49.897Z,1015.47
2018-04-24T04:23:17.135Z,1015.55
2018-04-24T04:24:44.120Z,1015.56
2018-04-24T04:26:11.537Z,1015.57
2018-04-24T04:27:38.539Z,1015.65
2018-04-24T04:29:05.698Z,1015.71
2018-04-24T04:30:33.160Z,1015.67
2018-04-24T04:32:00.739Z,1015.67
2018-04-24T04:33:28.174Z,1015.64
2018-04-24T04:34:55.428Z,1015.58
2018-04-24T04:36:22.816Z,1015.53
2018-04-24T04:37:50.084Z,1015.51
2018-04-24T04:39:17.325Z,1015.46
2018-04-24T04:40:44.537Z,1015.42
2018-04-24T04:42:11.725Z,1015.35
2018-04-24T04:43:39.060Z,1015.34
2018-04-24T04:45:06.314Z,1015.30
2018-04-24T04:46:33.244Z,1015.27
2018-04-24T04:48:00.356Z,1015.25
2018-04-24T04:49:27.408Z,1015.25
2018-04-24T04:50:54.374Z,1015.27
2018-04-24T04:52:21.771Z,1015.27
2018-04-24T04:53:48.893Z,1015.24
2018-04-24T04:55:16.202Z,1015.27
2018-04-24T04:56:43.304Z,1015.30
2018-04-24T04:58:10.718Z,1015.26
2018-04-24T04:59:37.973Z,1015.25
2018-04-24T05:01:13.404Z,1015.20
2018-04-24T05:02:32.560Z,1015.18
2018-04-24T05:03:59.857Z,1015.20
2018-04-24T05:05:27.172Z,1015.22
2018-04-24T05:06:54.628Z,1015.18
2018-04-24T05:08:21.890Z,1015.17
2018-04-24T05:09:49.292Z,1015.20
2018-04-24T05:11:16.602Z,1015.17
2018-04-24T05:12:43.887Z,1015.09
2018-04-24T05:14:11.230Z,1015.07
2018-04-24T05:15:37.988Z,1015.08
2018-04-24T05:17:04.948Z,1015.08
2018-04-24T05:18:32.074Z,1015.03
2018-04-24T05:19:59.226Z,1015.09
2018-04-24T05:21:25.880Z,1015.09
2018-04-24T05:22:52.643Z,1015.09
2018-04-24T05:24:19.733Z,1015.07
2018-04-24T05:25:46.805Z,1015.08
2018-04-24T05:27:14.041Z,1015.16
2018-04-24T05:28:41.387Z,1015.13
2018-04-24T05:30:08.631Z,1015.17
2018-04-24T05:31:35.972Z,1015.12
2018-04-24T05:33:03.262Z,1015.12
2018-04-24T05:34:30.474Z,1015.09
2018-04-24T05:35:57.697Z,1015.07
2018-04-24T05:37:25.035Z,1015.08
2018-04-24T05:38:52.185Z,1015.08
2018-04-24T05:40:19.147Z,1015.07
2018-04-24T05:41:46.334Z,1015.07
2018-04-24T05:43:13.241Z,1015.03
2018-04-24T05:44:40.117Z,1015.00
2018-04-24T05:46:07.429Z,1014.97
2018-04-24T05:47:34.875Z,1014.94
2018-04-24T05:49:02.200Z,1014.90
2018-04-24T05:50:29.196Z,1014.87
2018-04-24T05:51:56.503Z,1014.86
2018-04-24T05:53:23.875Z,1014.86
2018-04-24T05:54:51.112Z,1014.89
2018-04-24T05:56:18.146Z,1014.87
2018-04-24T05:57:45.343Z,1014.85
2018-04-24T05:59:12.600Z,1014.83
2018-04-24T06:00:40.165Z,1014.81
2018-04-24T06:02:07.377Z,1014.75
2018-04-24T06:03:34.427Z,1014.74
2018-04-24T06:05:01.673Z,1014.77
2018-04-24T06:06:28.892Z,1014.78
2018-04-24T06:07:56.103Z,1014.73
2018-04-24T06:09:23.317Z,1014.68
2018-04-24T06:10:50.553Z,1014.64
2018-04-24T06:12:17.671Z,1014.68
2018-04-24T06:13:44.553Z,1014.62
2018-04-24T06:15:11.828Z,1014.58
2018-04-24T06:16:38.959Z,1014.50
2018-04-24T06:18:06.313Z,1014.48
2018-04-24T06:19:33.498Z,1014.44
2018-04-24T06:21:00.977Z,1014.43
2018-04-24T06:22:27.971Z,1014.46
2018-04-24T06:23:54.802Z,1014.45
2018-04-24T06:25:22.031Z,1014.42
2018-04-24T06:26:49.167Z,1014.40
2018-04-24T06:28:16.502Z,1014.38
2018-04-24T06:29:43.563Z,1014.40
2018-04-24T06:31:10.829Z,1014.45
2018-04-24T06:32:37.738Z,1014.42
2018-04-24T06:34:04.999Z,1014.38
2018-04-24T06:35:32.324Z,1014.37
2018-04-24T06:36:59.103Z,1014.35
2018-04-24T06:38:26.408Z,1014.37
2018-04-24T06:39:53.428Z,1014.31
2018-04-24T06:41:20.765Z,1014.28
2018-04-24T06:42:47.638Z,1014.26
2018-04-24T06:44:14.674Z,1014.35
2018-04-24T06:45:41.520Z,1014.35
2018-04-24T06:47:08.809Z,1014.33
2018-04-24T06:48:36.041Z,1014.32
2018-04-24T06:50:03.166Z,1014.30
2018-04-24T06:51:30.265Z,1014.27
2018-04-24T06:52:57.425Z,1014.28
2018-04-24T06:54:24.628Z,1014.24
2018-04-24T06:55:51.692Z,1014.27
2018-04-24T06:57:18.971Z,1014.24
2018-04-24T06:58:46.030Z,1014.27
2018-04-24T07:00:13.000Z,1014.26
2018-04-24T07:01:39.861Z,1014.25
2018-04-24T07:03:07.067Z,1014.21
2018-04-24T07:04:34.215Z,1014.21
2018-04-24T07:06:01.368Z,1014.20
2018-04-24T07:07:29.078Z,1014.26
2018-04-24T07:08:56.219Z,1014.27
2018-04-24T07:10:23.716Z,1014.22
2018-04-24T07:11:50.985Z,1014.25
2018-04-24T07:13:18.187Z,1014.32
2018-04-24T07:14:45.393Z,1014.33
2018-04-24T07:16:12.785Z,1014.35
2018-04-24T07:17:40.116Z,1014.35
2018-04-24T07:19:07.633Z,1014.31
2018-04-24T07:20:44.489Z,1014.35
2018-04-24T07:22:11.725Z,1014.37
2018-04-24T07:23:39.143Z,1014.35
2018-04-24T07:25:06.508Z,1014.35
2018-04-24T07:26:33.942Z,1014.32
2018-04-24T07:28:01.256Z,1014.27
2018-04-24T07:29:28.860Z,1014.27
2018-04-24T07:30:56.081Z,1014.29
2018-04-24T07:32:23.548Z,1014.28
2018-04-24T07:33:50.740Z,1014.32
2018-04-24T07:35:17.930Z,1014.28
2018-04-24T07:36:45.214Z,1014.28
2018-04-24T07:38:12.519Z,1014.27
2018-04-24T07:39:39.958Z,1014.25
2018-04-24T07:41:07.361Z,1014.28
2018-04-24T07:42:34.876Z,1014.25
2018-04-24T07:44:02.046Z,1014.18
2018-04-24T07:45:29.399Z,1014.17
2018-04-24T07:46:56.810Z,1014.15
2018-04-24T07:48:24.216Z,1014.14
2018-04-24T07:49:51.658Z,1014.12
2018-04-24T07:51:18.965Z,1014.16
2018-04-24T07:52:46.332Z,1014.10
2018-04-24T07:54:13.479Z,1014.12
2018-04-24T07:55:40.737Z,1014.10
2018-04-24T07:57:08.347Z,1014.02
2018-04-24T07:58:35.633Z,1014.02
2018-04-24T08:00:02.889Z,1014.02
2018-04-24T08:01:30.252Z,1014.03
2018-04-24T08:02:57.603Z,1014.03
2018-04-24T08:04:24.931Z,1014.06
2018-04-24T08:05:52.470Z,1014.06
2018-04-24T08:07:19.832Z,1014.06
2018-04-24T08:08:46.954Z,1014.10
2018-04-24T08:10:14.234Z,1014.13
2018-04-24T08:11:41.546Z,1014.13
2018-04-24T08:13:09.740Z,1014.14
2018-04-24T08:14:36.289Z,1014.13
2018-04-24T08:16:03.694Z,1014.11
2018-04-24T08:17:31.132Z,1014.11
2018-04-24T08:18:58.481Z,1014.09
2018-04-24T08:20:25.779Z,1014.09
2018-04-24T08:21:53.204Z,1014.05
2018-04-24T08:23:20.603Z,1014.08
2018-04-24T08:24:47.685Z,1014.08
2018-04-24T08:26:14.984Z,1014.07
2018-04-24T08:27:42.447Z,1014.08
2018-04-24T08:29:09.648Z,1014.07
2018-04-24T08:30:37.014Z,1014.10
2018-04-24T08:32:04.265Z,1014.11
2018-04-24T08:33:31.795Z,1014.08
2018-04-24T08:34:59.248Z,1014.13
2018-04-24T08:36:26.741Z,1014.15
2018-04-24T08:37:54.104Z,1014.16
2018-04-24T08:39:21.624Z,1014.16
2018-04-24T08:40:48.864Z,1014.20
2018-04-24T08:42:16.319Z,1014.17
2018-04-24T08:43:43.308Z,1014.13
2018-04-24T08:45:10.709Z,1014.10
2018-04-24T08:46:37.917Z,1014.15
2018-04-24T08:48:05.583Z,1014.13
2018-04-24T08:49:32.845Z,1014.12
2018-04-24T08:51:00.194Z,1014.10
2018-04-24T08:52:27.645Z,1014.16
2018-04-24T08:53:55.093Z,1014.13
2018-04-24T08:55:22.274Z,1014.22
2018-04-24T08:56:49.602Z,1014.30
2018-04-24T08:58:16.788Z,1014.31
2018-04-24T08:59:44.024Z,1014.28
2018-04-24T09:01:11.477Z,1014.25
2018-04-24T09:02:38.685Z,1014.24
2018-04-24T09:04:06.236Z,1014.20
2018-04-24T09:05:33.482Z,1014.20
2018-04-24T09:07:00.596Z,1014.19
2018-04-24T09:08:28.072Z,1014.14
2018-04-24T09:09:55.255Z,1014.11
2018-04-24T09:11:22.504Z,1014.15
2018-04-24T09:12:49.867Z,1014.10
2018-04-24T09:14:17.135Z,1014.10
2018-04-24T09:15:44.465Z,1014.13
2018-04-24T09:17:11.591Z,1014.21
2018-04-24T09:18:39.004Z,1014.18
2018-04-24T09:20:06.498Z,1014.22
2018-04-24T09:21:33.914Z,1014.26
2018-04-24T09:23:01.041Z,1014.23
2018-04-24T09:24:28.300Z,1014.26
2018-04-24T09:25:55.743Z,1014.24
2018-04-24T09:27:23.086Z,1014.19
2018-04-24T09:28:50.228Z,1014.16
2018-04-24T09:30:17.703Z,1014.18
2018-04-24T09:31:44.897Z,1014.18
2018-04-24T09:33:12.401Z,1014.19
2018-04-24T09:34:39.851Z,1014.21
2018-04-24T09:36:07.001Z,1014.20
2018-04-24T09:37:34.453Z,1014.26
2018-04-24T09:39:01.873Z,1014.30
2018-04-24T09:40:29.345Z,1014.29
2018-04-24T09:41:56.491Z,1014.34
2018-04-24T09:43:23.709Z,1014.37
2018-04-24T09:44:51.111Z,1014.41
2018-04-24T09:46:18.391Z,1014.39
2018-04-24T09:47:45.640Z,1014.42
2018-04-24T09:49:13.006Z,1014.44
2018-04-24T09:50:40.343Z,1014.45
2018-04-24T09:52:07.698Z,1014.50
2018-04-24T09:53:35.076Z,1014.50
2018-04-24T09:55:02.755Z,1014.47
2018-04-24T09:56:30.096Z,1014.46
2018-04-24T09:57:57.572Z,1014.48
2018-04-24T09:59:24.708Z,1014.45
2018-04-24T10:00:51.919Z,1014.45
2018-04-24T10:02:19.403Z,1014.47
2018-04-24T10:03:46.641Z,1014.44
2018-04-24T10:05:13.788Z,1014.43
2018-04-24T10:06:41.308Z,1014.44
2018-04-24T10:08:08.624Z,1014.48
2018-04-24T10:09:36.021Z,1014.59
2018-04-24T10:11:03.391Z,1014.59
2018-04-24T10:12:30.710Z,1014.58
2018-04-24T10:13:58.115Z,1014.57
2018-04-24T10:15:25.668Z,1014.64
2018-04-24T10:16:52.954Z,1014.63
2018-04-24T10:18:20.242Z,1014.58
2018-04-24T10:19:47.841Z,1014.52
2018-04-24T10:21:14.955Z,1014.51
2018-04-24T10:22:42.377Z,1014.57
2018-04-24T10:24:09.746Z,1014.57
2018-04-24T10:25:37.206Z,1014.60
2018-04-24T10:27:04.404Z,1014.67
2018-04-24T10:28:31.807Z,1014.59
2018-04-24T10:29:59.285Z,1014.63
2018-04-24T10:31:26.617Z,1014.70
2018-04-24T10:32:53.988Z,1014.79
2018-04-24T10:34:21.443Z,1014.83
2018-04-24T10:35:48.892Z,1014.80
2018-04-24T10:37:16.366Z,1014.76
2018-04-24T10:38:43.734Z,1014.71
2018-04-24T10:40:11.117Z,1014.69
2018-04-24T10:41:38.564Z,1014.67
2018-04-24T10:43:06.133Z,1014.62
2018-04-24T10:44:33.458Z,1014.66
2018-04-24T10:46:00.760Z,1014.72
2018-04-24T10:47:28.137Z,1014.73
2018-04-24T10:48:55.499Z,1014.70
2018-04-24T10:50:22.838Z,1014.65
2018-04-24T10:51:50.167Z,1014.60
2018-04-24T10:53:17.426Z,1014.56
2018-04-24T10:54:44.553Z,1014.60
2018-04-24T10:56:11.646Z,1014.70
2018-04-24T10:57:39.107Z,1014.77
2018-04-24T10:59:06.549Z,1014.74
2018-04-24T11:00:33.961Z,1014.69
2018-04-24T11:02:01.249Z,1014.58
2018-04-24T11:03:28.451Z,1014.51
2018-04-24T11:04:55.935Z,1014.58
2018-04-24T11:06:23.451Z,1014.57
2018-04-24T11:07:50.915Z,1014.56
2018-04-24T11:09:18.149Z,1014.53
2018-04-24T11:10:45.262Z,1014.53
2018-04-24T11:12:12.698Z,1014.57
2018-04-24T11:13:40.118Z,1014.55
2018-04-24T11:15:07.641Z,1014.52
2018-04-24T11:16:35.084Z,1014.57
2018-04-24T11:18:02.578Z,1014.62
2018-04-24T11:19:29.837Z,1014.65
2018-04-24T11:20:57.347Z,1014.72
2018-04-24T11:22:24.747Z,1014.74
2018-04-24T11:23:52.067Z,1014.75
2018-04-24T11:25:19.422Z,1014.75
2018-04-24T11:26:46.933Z,1014.74
2018-04-24T11:28:14.072Z,1014.73
2018-04-24T11:29:41.294Z,1014.76
2018-04-24T11:31:08.779Z,1014.82
2018-04-24T11:32:36.202Z,1014.76
2018-04-24T11:34:03.601Z,1014.79
2018-04-24T11:35:31.088Z,1014.80
2018-04-24T11:36:58.585Z,1014.80
2018-04-24T11:38:25.918Z,1014.82
2018-04-24T11:39:53.305Z,1014.87
2018-04-24T11:41:20.573Z,1014.81
2018-04-24T11:42:47.973Z,1014.77
2018-04-24T11:44:15.222Z,1014.81
2018-04-24T11:45:42.287Z,1014.88
2018-04-24T11:47:09.657Z,1014.89
2018-04-24T11:48:37.351Z,1014.79
2018-04-24T11:50:04.680Z,1014.75
2018-04-24T11:51:31.809Z,1014.76
2018-04-24T11:52:59.226Z,1014.73
2018-04-24T11:54:26.587Z,1014.80
2018-04-24T11:55:53.881Z,1014.91
2018-04-24T11:57:21.395Z,1014.86
2018-04-24T11:58:48.694Z,1014.82
2018-04-24T12:00:15.947Z,1014.93
2018-04-24T12:01:43.388Z,1014.97
2018-04-24T12:03:10.899Z,1014.92
2018-04-24T12:04:38.246Z,1014.95
2018-04-24T12:06:05.756Z,1015.02
2018-04-24T12:07:33.208Z,1015.01
2018-04-24T12:09:00.686Z,1015.02
2018-04-24T12:10:27.820Z,1015.01
2018-04-24T12:11:55.271Z,1014.95
2018-04-24T12:13:22.530Z,1014.99
2018-04-24T12:14:49.954Z,1015.08
2018-04-24T12:16:17.444Z,1015.04
2018-04-24T12:17:44.658Z,1015.00
2018-04-24T12:19:12.012Z,1015.01
2018-04-24T12:20:39.260Z,1015.00
2018-04-24T12:22:06.737Z,1014.98
2018-04-24T12:23:34.026Z,1015.00
2018-04-24T12:25:01.401Z,1015.05
2018-04-24T12:26:28.769Z,1015.01
2018-04-24T12:27:55.890Z,1015.09
2018-04-24T12:29:23.104Z,1015.05
2018-04-24T12:30:50.464Z,1015.03
2018-04-24T12:32:17.953Z,1014.95
2018-04-24T12:33:45.357Z,1014.93
2018-04-24T12:35:12.784Z,1014.96
2018-04-24T12:36:40.259Z,1014.99
2018-04-24T12:38:07.635Z,1014.99
2018-04-24T12:39:34.983Z,1015.04
2018-04-24T12:41:02.368Z,1015.01
2018-04-24T12:42:29.658Z,1015.06
2018-04-24T12:43:57.113Z,1015.09
2018-04-24T12:45:24.389Z,1015.04
2018-04-24T12:46:51.780Z,1015.04
2018-04-24T12:48:19.033Z,1015.09
2018-04-24T12:49:46.248Z,1015.14
2018-04-24T12:51:13.292Z,1015.16
2018-04-24T12:52:40.637Z,1015.20
2018-04-24T12:54:07.969Z,1015.11
2018-04-24T12:55:35.214Z,1015.10
2018-04-24T12:57:02.581Z,1015.08
2018-04-24T12:58:30.012Z,1015.01
2018-04-24T12:59:57.342Z,1014.96
2018-04-24T13:01:24.392Z,1014.98
2018-04-24T13:02:51.723Z,1014.99
2018-04-24T13:04:19.056Z,1014.97
2018-04-24T13:05:46.543Z,1014.97
2018-04-24T13:07:13.746Z,1015.00
2018-04-24T13:08:40.967Z,1014.96
2018-04-24T13:10:08.199Z,1015.04
2018-04-24T13:11:35.366Z,1015.00
2018-04-24T13:13:02.641Z,1014.87
2018-04-24T13:14:30.187Z,1014.95
2018-04-24T13:15:57.583Z,1015.00
2018-04-24T13:17:24.975Z,1015.04
2018-04-24T13:18:52.177Z,1015.05
2018-04-24T13:20:19.447Z,1015.10
2018-04-24T13:21:46.859Z,1015.10
2018-04-24T13:23:14.086Z,1015.13
2018-04-24T13:24:41.414Z,1015.15
2018-04-24T13:26:08.636Z,1015.21
2018-04-24T13:27:39.103Z,1015.11
2018-04-24T13:29:03.079Z,1015.03
2018-04-24T13:30:30.281Z,1014.90
2018-04-24T13:31:57.583Z,1014.90
2018-04-24T13:33:24.918Z,1014.97
2018-04-24T13:34:52.213Z,1015.04
2018-04-24T13:36:19.596Z,1014.99
2018-04-24T13:37:46.816Z,1015.09
2018-04-24T13:39:14.142Z,1015.11
2018-04-24T13:40:41.539Z,1015.04
2018-04-24T13:42:08.688Z,1015.02
2018-04-24T13:43:36.038Z,1015.12
2018-04-24T13:45:03.511Z,1015.09
2018-04-24T13:46:30.776Z,1015.07
2018-04-24T13:47:58.167Z,1015.04
2018-04-24T13:49:25.144Z,1015.01
2018-04-24T13:50:52.301Z,1015.02
2018-04-24T13:52:19.624Z,1015.04
2018-04-24T13:53:46.935Z,1015.02
2018-04-24T13:55:14.107Z,1015.04
2018-04-24T13:56:41.695Z,1015.04
2018-04-24T13:58:08.888Z,1014.98
2018-04-24T13:59:36.314Z,1014.96
2018-04-24T14:01:03.736Z,1014.87
2018-04-24T14:02:30.884Z,1014.88
2018-04-24T14:03:58.240Z,1014.87
2018-04-24T14:05:25.719Z,1014.82
2018-04-24T14:06:52.994Z,1014.76
2018-04-24T14:08:20.191Z,1014.72
2018-04-24T14:09:47.648Z,1014.72
2018-04-24T14:11:14.666Z,1014.73
2018-04-24T14:12:42.058Z,1014.68
2018-04-24T14:14:09.395Z,1014.59
2018-04-24T14:15:36.880Z,1014.52
2018-04-24T14:17:04.285Z,1014.54
2018-04-24T14:18:31.593Z,1014.55
2018-04-24T14:19:58.944Z,1014.58
2018-04-24T14:21:26.445Z,1014.59
2018-04-24T14:22:53.523Z,1014.66
2018-04-24T14:24:20.931Z,1014.71
2018-04-24T14:25:48.401Z,1014.75
2018-04-24T14:27:15.697Z,1014.76
2018-04-24T14:28:43.166Z,1014.73
2018-04-24T14:30:10.327Z,1014.75
2018-04-24T14:31:37.742Z,1014.76
2018-04-24T14:33:04.950Z,1014.77
2018-04-24T14:34:32.376Z,1014.76
2018-04-24T14:35:59.824Z,1014.72
2018-04-24T14:37:27.213Z,1014.69
2018-04-24T14:38:54.697Z,1014.73
2018-04-24T14:40:22.062Z,1014.73
2018-04-24T14:41:49.417Z,1014.77
2018-04-24T14:43:16.683Z,1014.71
2018-04-24T14:44:43.881Z,1014.71
2018-04-24T14:46:11.319Z,1014.69
2018-04-24T14:47:38.534Z,1014.65
2018-04-24T14:49:06.162Z,1014.66
2018-04-24T14:50:33.473Z,1014.64
2018-04-24T14:52:00.699Z,1014.67
2018-04-24T14:53:27.997Z,1014.66
2018-04-24T14:54:55.324Z,1014.70
2018-04-24T14:56:22.691Z,1014.71
2018-04-24T14:57:49.956Z,1014.70
2018-04-24T14:59:17.328Z,1014.69
2018-04-24T15:00:44.567Z,1014.68
2018-04-24T15:02:11.858Z,1014.68
2018-04-24T15:03:39.389Z,1014.73
2018-04-24T15:05:06.599Z,1014.76
2018-04-24T15:06:34.098Z,1014.77
2018-04-24T15:08:01.308Z,1014.77
2018-04-24T15:09:28.682Z,1014.73
2018-04-24T15:10:56.031Z,1014.73
2018-04-24T15:12:23.462Z,1014.72
2018-04-24T15:13:50.965Z,1014.68
2018-04-24T15:15:18.268Z,1014.69
2018-04-24T15:16:45.485Z,1014.65
2018-04-24T15:18:12.819Z,1014.68
2018-04-24T15:19:40.103Z,1014.70
2018-04-24T15:21:07.538Z,1014.72
2018-04-24T15:22:34.854Z,1014.70
2018-04-24T15:24:02.173Z,1014.70
2018-04-24T15:25:29.521Z,1014.67
2018-04-24T15:26:56.839Z,1014.67
2018-04-24T15:28:24.316Z,1014.71
2018-04-24T15:29:51.570Z,1014.69
2018-04-24T15:31:18.984Z,1014.71
2018-04-24T15:32:46.224Z,1014.70
2018-04-24T15:34:13.502Z,1014.70
2018-04-24T15:35:40.957Z,1014.73
2018-04-24T15:37:08.470Z,1014.72
2018-04-24T15:38:35.928Z,1014.69
2018-04-24T15:40:03.413Z,1014.70
2018-04-24T15:41:30.792Z,1014.67
2018-04-24T15:42:58.158Z,1014.64
2018-04-24T15:44:25.605Z,1014.63
2018-04-24T15:45:52.969Z,1014.58
2018-04-24T15:47:20.388Z,1014.62
2018-04-24T15:48:47.960Z,1014.66
2018-04-24T15:50:15.109Z,1014.66
2018-04-24T15:51:42.578Z,1014.67
2018-04-24T15:53:10.089Z,1014.66
2018-04-24T15:54:37.410Z,1014.66
2018-04-24T15:56:04.843Z,1014.67
2018-04-24T15:57:32.266Z,1014.70
2018-04-24T15:58:59.696Z,1014.72
2018-04-24T16:00:27.121Z,1014.69
2018-04-24T16:01:54.261Z,1014.67
2018-04-24T16:03:21.672Z,1014.68
2018-04-24T16:04:48.798Z,1014.67
2018-04-24T16:06:16.206Z,1014.68
2018-04-24T16:07:43.146Z,1014.69
2018-04-24T16:09:10.568Z,1014.68
2018-04-24T16:10:38.022Z,1014.66
2018-04-24T16:12:05.457Z,1014.67
2018-04-24T16:13:32.913Z,1014.67
2018-04-24T16:15:00.296Z,1014.66
2018-04-24T16:16:27.471Z,1014.70
2018-04-24T16:17:54.782Z,1014.70
2018-04-24T16:19:22.052Z,1014.69
2018-04-24T16:20:49.491Z,1014.69
2018-04-24T16:22:16.926Z,1014.69
2018-04-24T16:23:44.071Z,1014.67
2018-04-24T16:25:11.482Z,1014.65
2018-04-24T16:26:38.760Z,1014.68
2018-04-24T16:28:06.126Z,1014.71
2018-04-24T16:29:33.473Z,1014.68
2018-04-24T16:31:00.797Z,1014.64
2018-04-24T16:32:28.294Z,1014.65
2018-04-24T16:33:55.844Z,1014.58
2018-04-24T16:35:22.976Z,1014.56
2018-04-24T16:36:50.354Z,1014.56
2018-04-24T16:38:17.567Z,1014.54
2018-04-24T16:39:44.812Z,1014.55
2018-04-24T16:41:12.107Z,1014.54
2018-04-24T16:42:39.428Z,1014.51
2018-04-24T16:44:06.800Z,1014.54
2018-04-24T16:45:34.239Z,1014.47
2018-04-24T16:47:01.591Z,1014.46
2018-04-24T16:48:28.988Z,1014.46
2018-04-24T16:49:56.393Z,1014.42
2018-04-24T16:51:23.791Z,1014.39
2018-04-24T16:52:51.273Z,1014.39
2018-04-24T16:54:18.833Z,1014.32
2018-04-24T16:55:46.112Z,1014.26
2018-04-24T16:57:13.312Z,1014.28
2018-04-24T16:58:40.797Z,1014.29
2018-04-24T17:00:08.127Z,1014.33
2018-04-24T17:01:35.398Z,1014.29
2018-04-24T17:03:02.815Z,1014.32
2018-04-24T17:04:30.158Z,1014.33
2018-04-24T17:05:57.651Z,1014.33
2018-04-24T17:07:24.950Z,1014.33
2018-04-24T17:08:52.323Z,1014.34
2018-04-24T17:10:19.675Z,1014.34
2018-04-24T17:11:47.055Z,1014.39
2018-04-24T17:13:14.050Z,1014.39
2018-04-24T17:14:41.601Z,1014.41
2018-04-24T17:16:08.992Z,1014.44
2018-04-24T17:17:36.526Z,1014.48
2018-04-24T17:19:03.969Z,1014.50
2018-04-24T17:20:31.298Z,1014.53
2018-04-24T17:21:58.567Z,1014.50
2018-04-24T17:23:25.965Z,1014.48
2018-04-24T17:24:53.390Z,1014.51
2018-04-24T17:26:20.918Z,1014.48
2018-04-24T17:27:48.268Z,1014.47
2018-04-24T17:29:15.561Z,1014.47
2018-04-24T17:30:42.806Z,1014.46
2018-04-24T17:32:10.159Z,1014.44
2018-04-24T17:33:37.435Z,1014.43
2018-04-24T17:35:04.711Z,1014.39
2018-04-24T17:36:32.241Z,1014.38